Time;durP1;ratioP1;P1;durP2;ratioP2;P2;SDS_P1;SDS_P2;PMS_P1;PMS_P2;Temp;Humidity;BMP_temperature;BMP_pressure;BME280_temperature;BME280_humidity;BME280_pressure;Samples;Min_cycle;Max_cycle;Signal;HPM_P1;HPM_P2
2022/01/08 00:01:11;;;;;;;15.55;9.75;;;1.80;99.90;;;;;;5018128;28;20037;-83
2022/01/08 00:03:39;;;;;;;15.70;10.13;;;1.80;99.90;;;;;;4991300;28;20053;-84
2022/01/08 00:06:05;;;;;;;14.82;9.88;;;1.90;99.90;;;;;;5029638;28;20045;-84
2022/01/08 00:08:32;;;;;;;15.98;10.90;;;1.90;99.90;;;;;;5013257;28;20512;-85
2022/01/08 00:10:58;;;;;;;14.30;9.30;;;1.90;99.90;;;;;;5026986;28;20511;-85
2022/01/08 00:13:25;;;;;;;16.95;9.70;;;1.90;99.90;;;;;;5022656;28;20144;-85
2022/01/08 00:15:51;;;;;;;14.32;8.90;;;1.90;99.90;;;;;;5011050;28;20053;-84
2022/01/08 00:18:17;;;;;;;14.60;8.45;;;1.90;99.90;;;;;;5008769;28;20045;-85
2022/01/08 00:20:43;;;;;;;14.70;9.00;;;1.90;99.90;;;;;;5004192;28;20045;-85
2022/01/08 00:23:10;;;;;;;16.15;9.15;;;2.00;99.90;;;;;;5023705;28;20075;-86
2022/01/08 00:25:36;;;;;;;16.40;8.90;;;1.90;99.90;;;;;;5006101;28;20044;-85
2022/01/08 00:28:03;;;;;;;15.10;8.55;;;2.00;99.90;;;;;;4985334;28;20076;-85
2022/01/08 00:30:30;;;;;;;10.13;7.75;;;1.90;99.90;;;;;;5014048;28;20036;-86
2022/01/08 00:32:58;;;;;;;13.25;7.95;;;1.90;99.90;;;;;;5015174;28;20044;-86
2022/01/08 00:35:26;;;;;;;18.15;8.30;;;1.90;99.90;;;;;;5016574;28;20044;-84
2022/01/08 00:37:52;;;;;;;15.23;8.32;;;1.90;99.90;;;;;;4999358;28;20132;-85
2022/01/08 00:40:18;;;;;;;16.42;8.45;;;1.90;99.90;;;;;;5014956;28;20045;-85
2022/01/08 00:42:44;;;;;;;16.55;9.23;;;2.00;99.90;;;;;;5020038;28;20053;-84
2022/01/08 00:45:11;;;;;;;12.23;8.70;;;2.00;99.90;;;;;;5010482;28;20167;-85
2022/01/08 00:47:37;;;;;;;19.25;10.38;;;2.00;99.90;;;;;;5032337;28;20122;-85
2022/01/08 00:50:05;;;;;;;17.98;10.70;;;2.00;99.90;;;;;;5011022;28;20069;-85
2022/01/08 00:52:31;;;;;;;18.98;10.15;;;2.00;99.90;;;;;;5042649;28;20668;-85
2022/01/08 00:54:58;;;;;;;16.95;10.88;;;2.00;99.90;;;;;;5008867;28;20079;-85
2022/01/08 00:57:24;;;;;;;16.35;9.98;;;2.00;99.90;;;;;;4996253;28;20448;-85
2022/01/08 00:59:50;;;;;;;16.55;10.57;;;2.00;99.90;;;;;;5014609;28;20105;-85
2022/01/08 01:02:16;;;;;;;23.27;10.75;;;2.00;99.90;;;;;;5009167;28;20052;-84
2022/01/08 01:04:42;;;;;;;16.48;10.45;;;2.00;99.90;;;;;;5011835;28;20059;-85
2022/01/08 01:07:09;;;;;;;16.63;11.13;;;1.90;99.90;;;;;;5018955;28;20041;-85
2022/01/08 01:09:35;;;;;;;17.58;11.43;;;1.90;99.90;;;;;;5010930;28;20417;-84
2022/01/08 01:12:01;;;;;;;15.70;11.85;;;1.90;99.90;;;;;;4992431;28;20045;-85
2022/01/08 01:14:27;;;;;;;18.88;11.63;;;1.80;99.90;;;;;;5005255;28;20076;-84
2022/01/08 01:16:54;;;;;;;18.98;11.95;;;1.70;99.90;;;;;;4993146;28;20049;-85
2022/01/08 01:19:21;;;;;;;19.17;12.18;;;1.60;99.90;;;;;;5015075;28;20543;-85
2022/01/08 01:21:48;;;;;;;17.70;12.25;;;1.60;99.90;;;;;;5023590;28;20057;-86
2022/01/08 01:24:19;;;;;;;20.33;12.82;;;1.60;99.90;;;;;;4978673;28;20060;-85
2022/01/08 01:48:24;;;;;;;24.45;15.90;;;1.20;99.90;;;;;;5007466;28;20108;-85
2022/01/08 01:50:51;;;;;;;27.45;18.15;;;1.20;99.90;;;;;;5011694;28;20063;-85
2022/01/08 01:53:17;;;;;;;25.90;17.63;;;1.10;99.90;;;;;;5015527;28;20045;-86
2022/01/08 01:55:45;;;;;;;28.25;17.45;;;1.20;99.90;;;;;;5009354;28;20107;-85
2022/01/08 01:58:12;;;;;;;33.38;19.02;;;1.10;99.90;;;;;;4975079;28;20045;-86
2022/01/08 02:00:38;;;;;;;35.22;19.95;;;1.10;99.90;;;;;;4993663;28;20128;-86
2022/01/08 02:03:06;;;;;;;32.25;19.05;;;1.10;99.90;;;;;;5016754;28;20535;-85
2022/01/08 02:05:32;;;;;;;25.92;18.92;;;1.10;99.90;;;;;;5052848;28;20076;-85
2022/01/08 02:07:58;;;;;;;30.30;18.48;;;1.20;99.90;;;;;;5012273;28;20041;-86
2022/01/08 02:10:24;;;;;;;31.17;19.92;;;1.20;99.90;;;;;;4994177;28;20042;-83
2022/01/08 02:12:51;;;;;;;32.33;19.35;;;1.20;99.90;;;;;;4982223;28;20567;-83
2022/01/08 02:15:17;;;;;;;28.95;19.48;;;1.20;99.90;;;;;;5010262;28;20064;-83
2022/01/08 02:17:43;;;;;;;25.75;17.98;;;1.20;99.90;;;;;;5012132;28;20045;-83
2022/01/08 02:20:10;;;;;;;27.35;17.05;;;1.20;99.90;;;;;;5025263;28;20124;-86
2022/01/08 02:22:37;;;;;;;28.80;18.10;;;1.20;99.90;;;;;;5031686;28;20041;-85
2022/01/08 02:25:03;;;;;;;27.30;18.58;;;1.20;99.90;;;;;;5001320;28;20098;-85
2022/01/08 02:27:29;;;;;;;26.60;19.48;;;1.30;99.90;;;;;;5050172;28;20070;-83
2022/01/08 02:29:57;;;;;;;28.65;18.73;;;1.30;99.90;;;;;;5003839;28;20067;-83
2022/01/08 02:32:27;;;;;;;28.25;19.77;;;1.30;99.90;;;;;;5002823;28;20068;-84
2022/01/08 02:34:53;;;;;;;28.85;18.75;;;1.40;99.90;;;;;;5038015;28;20159;-84
2022/01/08 02:37:29;;;;;;;34.80;20.55;;;1.40;99.90;;;;;;5021146;28;20049;-84
2022/01/08 02:39:56;;;;;;;26.90;19.33;;;1.40;99.90;;;;;;5027906;28;20056;-84
2022/01/08 02:42:25;;;;;;;28.75;19.33;;;1.40;99.90;;;;;;5021303;28;20049;-84
2022/01/08 02:44:51;;;;;;;30.35;19.75;;;1.40;99.90;;;;;;5043453;28;20048;-84
2022/01/08 02:47:19;;;;;;;27.88;18.25;;;1.40;99.90;;;;;;5022805;28;20053;-85
2022/01/08 02:49:48;;;;;;;24.65;16.05;;;1.30;99.90;;;;;;4996699;28;20041;-84
2022/01/08 02:52:14;;;;;;;22.90;16.23;;;1.30;99.90;;;;;;5028363;28;20041;-85
2022/01/08 02:54:41;;;;;;;27.20;16.73;;;1.20;99.90;;;;;;4996603;28;20258;-85
2022/01/08 02:57:07;;;;;;;29.20;17.95;;;1.20;99.90;;;;;;5021291;28;20040;-84
2022/01/08 02:59:34;;;;;;;26.92;17.58;;;1.20;99.90;;;;;;4997911;28;20047;-84
2022/01/08 03:02:00;;;;;;;25.33;18.13;;;1.10;99.90;;;;;;5016394;28;20128;-85
2022/01/08 03:04:37;;;;;;;28.70;16.77;;;1.20;99.90;;;;;;5006098;28;20044;-85
2022/01/08 03:07:07;;;;;;;26.40;17.00;;;1.10;99.90;;;;;;5011410;28;20045;-85
2022/01/08 03:09:41;;;;;;;30.65;17.58;;;1.10;99.90;;;;;;5033684;28;20056;-84
2022/01/08 03:12:08;;;;;;;28.40;17.92;;;1.10;99.90;;;;;;4982059;28;20049;-85
2022/01/08 03:14:37;;;;;;;29.65;17.27;;;1.00;99.90;;;;;;5000618;28;20035;-84
2022/01/08 03:17:03;;;;;;;26.27;15.77;;;1.00;99.90;;;;;;4999942;28;20404;-84
2022/01/08 03:19:30;;;;;;;28.38;16.75;;;1.00;99.90;;;;;;5022402;28;20037;-85
2022/01/08 03:21:57;;;;;;;28.80;16.55;;;1.00;99.90;;;;;;4996694;28;20048;-86
2022/01/08 03:24:28;;;;;;;21.50;14.73;;;1.00;99.90;;;;;;4995485;28;20041;-86
2022/01/08 03:26:54;;;;;;;21.70;15.35;;;1.00;99.90;;;;;;5020486;28;20148;-85
2022/01/08 03:29:21;;;;;;;23.27;15.52;;;1.00;99.90;;;;;;5006978;28;20053;-86
2022/01/08 03:31:47;;;;;;;22.10;16.13;;;1.00;99.90;;;;;;5004714;28;20052;-83
2022/01/08 03:34:14;;;;;;;25.55;16.35;;;0.90;99.90;;;;;;4995773;28;20041;-85
2022/01/08 03:36:40;;;;;;;20.83;15.43;;;0.90;99.90;;;;;;5052249;28;20538;-84
2022/01/08 03:39:06;;;;;;;24.48;16.08;;;0.90;99.90;;;;;;5045980;28;20402;-84
2022/01/08 03:41:33;;;;;;;26.75;16.80;;;0.90;99.90;;;;;;5023445;28;20118;-84
2022/01/08 03:43:59;;;;;;;28.05;16.88;;;1.00;99.90;;;;;;5023409;28;20513;-84
2022/01/08 03:46:28;;;;;;;25.98;15.30;;;1.00;99.90;;;;;;4988068;28;20102;-86
2022/01/08 03:51:26;;;;;;;24.33;15.07;;;1.00;99.90;;;;;;5006433;28;20486;-84
2022/01/08 03:53:53;;;;;;;25.40;14.70;;;1.00;99.90;;;;;;5014224;28;20421;-84
2022/01/08 03:56:19;;;;;;;30.10;15.80;;;1.10;99.90;;;;;;4998598;28;20481;-83
2022/01/08 03:58:57;;;;;;;26.58;15.23;;;1.00;99.90;;;;;;5001485;28;20033;-84
2022/01/08 04:01:31;;;;;;;23.17;14.43;;;1.00;99.90;;;;;;5032936;28;20072;-84
2022/01/08 04:04:00;;;;;;;24.10;14.68;;;1.00;99.90;;;;;;5018434;28;20516;-84
2022/01/08 04:06:26;;;;;;;26.45;15.07;;;1.00;99.90;;;;;;5008213;28;20068;-84
2022/01/08 04:09:01;;;;;;;22.80;15.13;;;1.00;99.90;;;;;;5002007;28;20546;-84
2022/01/08 04:11:34;;;;;;;23.58;13.98;;;1.10;99.90;;;;;;5008436;28;20049;-84
2022/01/08 04:14:12;;;;;;;24.83;14.70;;;1.00;99.90;;;;;;5017947;28;20155;-84
2022/01/08 04:16:48;;;;;;;27.98;14.10;;;1.00;99.90;;;;;;5002769;28;20039;-84
2022/01/08 04:19:14;;;;;;;35.53;16.33;;;1.00;99.90;;;;;;5017531;28;20045;-85
2022/01/08 04:21:59;;;;;;;29.08;16.02;;;1.00;99.90;;;;;;5012040;28;20053;-85
2022/01/08 04:24:26;;;;;;;27.10;15.35;;;1.00;99.90;;;;;;5063015;28;20037;-83
2022/01/08 04:26:52;;;;;;;24.40;15.48;;;1.10;99.90;;;;;;5018241;28;20420;-84
2022/01/08 04:29:19;;;;;;;26.88;15.70;;;1.10;99.90;;;;;;5015554;28;20151;-84
2022/01/08 04:31:48;;;;;;;28.83;16.33;;;1.10;99.90;;;;;;5005230;28;20053;-84
2022/01/08 04:34:18;;;;;;;22.50;15.07;;;1.10;99.90;;;;;;5008234;28;20045;-84
2022/01/08 04:36:44;;;;;;;23.08;15.05;;;1.10;99.90;;;;;;5012896;28;20102;-84
2022/01/08 04:39:11;;;;;;;22.80;14.23;;;1.10;99.90;;;;;;5015551;28;20057;-85
2022/01/08 04:41:44;;;;;;;26.23;15.38;;;1.10;99.90;;;;;;5002047;28;20075;-84
2022/01/08 04:44:11;;;;;;;22.88;14.73;;;1.00;99.90;;;;;;5030491;28;20041;-85
2022/01/08 04:46:41;;;;;;;26.73;15.07;;;0.90;99.90;;;;;;5002287;28;20057;-85
2022/01/08 04:49:11;;;;;;;28.05;14.18;;;0.90;99.90;;;;;;5042721;28;20056;-85
2022/01/08 04:51:37;;;;;;;25.40;15.85;;;0.80;99.90;;;;;;5004939;28;20056;-85
2022/01/08 04:54:07;;;;;;;26.58;14.05;;;0.80;99.90;;;;;;5006717;28;20049;-84
2022/01/08 04:56:41;;;;;;;25.20;13.95;;;0.80;99.90;;;;;;4993903;28;20049;-85
2022/01/08 04:59:07;;;;;;;30.83;15.15;;;0.90;99.90;;;;;;5024321;28;20048;-85
2022/01/08 05:01:41;;;;;;;30.17;15.52;;;0.90;99.90;;;;;;5013668;28;20041;-85
2022/01/08 05:04:09;;;;;;;25.55;15.18;;;0.90;99.90;;;;;;5028270;28;20519;-85
2022/01/08 05:06:35;;;;;;;26.27;15.13;;;0.80;99.90;;;;;;5024016;28;20056;-84
2022/01/08 05:09:04;;;;;;;24.55;14.43;;;0.90;99.90;;;;;;4981343;28;20048;-85
2022/01/08 05:11:31;;;;;;;22.25;14.55;;;0.80;99.90;;;;;;5029022;28;20045;-85
2022/01/08 05:13:58;;;;;;;26.88;14.50;;;0.80;99.90;;;;;;5030324;28;20064;-85
2022/01/08 05:16:27;;;;;;;22.95;13.60;;;0.90;99.90;;;;;;4993029;28;20511;-84
2022/01/08 05:18:54;;;;;;;25.75;14.05;;;0.90;99.90;;;;;;5006913;28;20056;-84
2022/01/08 05:21:25;;;;;;;24.73;14.60;;;0.90;99.90;;;;;;5010569;28;20041;-84
2022/01/08 05:23:58;;;;;;;23.30;14.45;;;0.90;99.90;;;;;;5019380;28;20520;-84
2022/01/08 05:26:27;;;;;;;26.73;13.27;;;0.90;99.90;;;;;;5042914;28;20048;-84
2022/01/08 05:28:53;;;;;;;29.55;14.10;;;0.90;99.90;;;;;;5016455;28;20052;-85
2022/01/08 05:31:22;;;;;;;30.00;14.18;;;0.90;99.90;;;;;;4976759;28;20049;-85
2022/01/08 05:33:50;;;;;;;22.85;13.68;;;0.80;99.90;;;;;;5009438;28;20052;-84
2022/01/08 05:36:21;;;;;;;20.30;13.52;;;0.80;99.90;;;;;;5029350;28;20385;-85
2022/01/08 05:38:47;;;;;;;19.17;12.95;;;0.70;99.90;;;;;;5042665;28;20053;-85
2022/01/08 05:41:14;;;;;;;23.40;13.48;;;0.70;99.90;;;;;;5003028;28;20033;-85
2022/01/08 05:43:41;;;;;;;27.67;15.20;;;0.70;99.90;;;;;;4999989;28;20052;-86
2022/01/08 05:46:09;;;;;;;24.50;13.10;;;0.70;99.90;;;;;;5017107;28;20068;-85
2022/01/08 05:48:37;;;;;;;21.92;12.73;;;0.70;99.90;;;;;;4999896;28;20045;-84
2022/01/08 05:51:03;;;;;;;24.35;13.55;;;0.70;99.90;;;;;;4978050;28;20041;-85
2022/01/08 05:53:30;;;;;;;21.25;11.73;;;0.80;99.90;;;;;;4997900;28;20047;-85
2022/01/08 05:55:56;;;;;;;23.23;12.15;;;0.80;99.90;;;;;;5011094;28;20084;-85
2022/01/08 05:58:23;;;;;;;25.52;11.82;;;0.80;99.90;;;;;;4993122;28;20521;-85
2022/01/08 06:00:49;;;;;;;24.75;11.52;;;0.70;99.90;;;;;;4995268;28;20077;-84
2022/01/08 06:03:17;;;;;;;20.23;10.80;;;0.70;99.90;;;;;;5038942;28;20045;-85
2022/01/08 06:05:44;;;;;;;20.30;11.52;;;0.70;99.90;;;;;;4991498;28;20051;-84
2022/01/08 06:08:10;;;;;;;18.17;10.43;;;0.80;99.90;;;;;;4994045;28;20072;-85
2022/01/08 06:10:36;;;;;;;21.38;11.80;;;0.70;99.90;;;;;;5019264;28;20037;-84
2022/01/08 06:13:03;;;;;;;20.45;10.45;;;0.80;99.90;;;;;;5038429;28;20041;-85
2022/01/08 06:15:29;;;;;;;23.02;11.93;;;0.80;99.90;;;;;;5016487;28;20052;-84
2022/01/08 06:17:56;;;;;;;22.63;11.40;;;0.80;99.90;;;;;;5000475;28;20041;-84
2022/01/08 06:20:23;;;;;;;22.17;11.73;;;0.90;99.90;;;;;;4987424;28;20436;-85
2022/01/08 06:22:50;;;;;;;21.80;12.23;;;0.80;99.90;;;;;;5009998;28;20512;-84
2022/01/08 06:25:16;;;;;;;20.05;11.38;;;0.90;99.90;;;;;;5026923;28;20493;-84
2022/01/08 06:27:43;;;;;;;22.17;11.93;;;0.80;99.90;;;;;;4994191;28;20040;-85
2022/01/08 06:30:09;;;;;;;29.58;11.50;;;0.80;99.90;;;;;;4982285;28;20037;-84
2022/01/08 06:32:35;;;;;;;24.42;10.73;;;0.80;99.90;;;;;;4995663;28;20048;-84
2022/01/08 06:35:02;;;;;;;21.13;10.05;;;0.80;99.90;;;;;;4997161;28;20117;-84
2022/01/08 06:37:28;;;;;;;15.65;10.38;;;0.80;99.90;;;;;;5024271;28;20048;-84
2022/01/08 06:39:55;;;;;;;24.48;11.38;;;0.80;99.90;;;;;;4998395;28;20045;-84
2022/01/08 06:42:21;;;;;;;22.33;11.73;;;0.80;99.90;;;;;;4995258;28;20099;-84
2022/01/08 06:44:48;;;;;;;21.08;11.10;;;0.80;99.90;;;;;;4992126;28;20394;-84
2022/01/08 06:47:14;;;;;;;22.85;11.48;;;0.80;99.90;;;;;;4981008;28;20041;-84
2022/01/08 06:49:40;;;;;;;18.23;11.85;;;0.80;99.90;;;;;;4998829;28;20045;-85
2022/01/08 06:52:06;;;;;;;23.05;12.80;;;0.70;99.90;;;;;;5028700;28;20048;-84
2022/01/08 06:54:32;;;;;;;24.75;11.80;;;0.80;99.90;;;;;;5012672;28;20037;-85
2022/01/08 06:56:59;;;;;;;21.35;11.75;;;0.70;99.90;;;;;;4996763;28;20051;-84
2022/01/08 06:59:26;;;;;;;21.90;11.38;;;0.70;99.90;;;;;;4993717;28;20489;-84
2022/01/08 07:01:52;;;;;;;19.48;11.65;;;0.70;99.90;;;;;;5023368;28;20118;-84
2022/01/08 07:04:18;;;;;;;23.75;11.65;;;0.70;99.90;;;;;;4988714;28;20080;-84
2022/01/08 07:06:44;;;;;;;19.15;11.85;;;0.70;99.90;;;;;;4992033;28;20045;-84
2022/01/08 07:09:11;;;;;;;20.45;11.82;;;0.80;99.90;;;;;;4986529;28;20045;-84
2022/01/08 07:11:37;;;;;;;23.45;13.02;;;0.70;99.90;;;;;;5007555;28;20060;-84
2022/01/08 07:14:03;;;;;;;16.10;10.18;;;0.70;99.90;;;;;;5021632;28;20053;-84
2022/01/08 07:16:29;;;;;;;17.77;10.98;;;0.70;99.90;;;;;;5024884;28;20114;-83
2022/01/08 07:18:55;;;;;;;20.75;11.23;;;0.70;99.90;;;;;;5019853;28;20045;-83
2022/01/08 07:21:24;;;;;;;18.05;10.57;;;0.70;99.90;;;;;;5006854;28;20041;-82
2022/01/08 07:23:50;;;;;;;23.35;11.00;;;0.80;99.90;;;;;;5032069;28;20460;-88
2022/01/08 07:26:16;;;;;;;19.90;10.75;;;0.70;99.90;;;;;;4998632;28;20524;-89
2022/01/08 07:28:42;;;;;;;21.17;10.57;;;0.70;99.90;;;;;;4993670;28;20095;-84
2022/01/08 07:31:09;;;;;;;17.73;9.88;;;0.70;99.90;;;;;;4977263;28;20041;-84
2022/01/08 07:33:35;;;;;;;22.50;10.90;;;0.80;99.90;;;;;;5026734;28;20103;-84
2022/01/08 07:36:01;;;;;;;22.27;10.13;;;0.80;99.90;;;;;;5051108;28;20044;-84
2022/01/08 07:38:27;;;;;;;20.42;10.55;;;0.80;99.90;;;;;;5000948;28;20045;-84
2022/01/08 07:40:54;;;;;;;20.23;9.48;;;0.80;99.90;;;;;;5035467;28;20068;-85
2022/01/08 07:43:20;;;;;;;14.90;8.93;;;0.80;99.90;;;;;;4998695;28;20106;-85
2022/01/08 07:45:46;;;;;;;15.40;9.23;;;0.80;99.90;;;;;;5038447;28;20064;-84
2022/01/08 07:48:12;;;;;;;18.52;9.93;;;0.80;99.90;;;;;;5016474;28;20045;-83
2022/01/08 07:50:39;;;;;;;17.05;8.27;;;0.80;99.90;;;;;;5031750;28;20100;-83
2022/01/08 07:53:06;;;;;;;14.43;8.30;;;0.80;99.90;;;;;;5025167;28;20102;-83
2022/01/08 07:55:32;;;;;;;13.75;8.45;;;0.80;99.90;;;;;;5029391;28;20037;-83
2022/01/08 07:57:58;;;;;;;18.25;8.73;;;0.80;99.90;;;;;;5011396;28;20092;-85
2022/01/08 08:00:24;;;;;;;16.15;8.75;;;0.90;99.90;;;;;;4985989;28;20797;-87
2022/01/08 08:02:51;;;;;;;17.80;8.98;;;0.80;99.90;;;;;;5039999;28;20451;-85
2022/01/08 08:05:23;;;;;;;17.70;8.38;;;0.80;99.90;;;;;;5004425;28;20037;-85
2022/01/08 08:07:55;;;;;;;12.88;8.18;;;0.80;99.90;;;;;;5016144;28;20055;-85
2022/01/08 08:10:22;;;;;;;18.80;7.90;;;0.80;99.90;;;;;;5013313;28;20047;-88
2022/01/08 08:12:48;;;;;;;17.13;8.48;;;0.90;99.90;;;;;;5017230;28;20053;-87
2022/01/08 08:15:15;;;;;;;16.35;9.23;;;1.00;99.90;;;;;;5005516;28;20501;-88
2022/01/08 08:17:49;;;;;;;15.43;8.43;;;1.10;99.90;;;;;;5017513;28;20097;-86
2022/01/08 08:20:32;;;;;;;18.77;8.57;;;1.10;99.90;;;;;;5015475;28;20052;-87
2022/01/08 08:23:04;;;;;;;16.88;8.82;;;1.20;99.90;;;;;;4998255;28;20053;-86
2022/01/08 08:25:31;;;;;;;13.25;8.75;;;1.30;99.90;;;;;;5007078;28;20053;-86
2022/01/08 08:27:57;;;;;;;16.42;8.52;;;1.30;99.90;;;;;;5023925;28;20041;-87
2022/01/08 08:30:23;;;;;;;19.98;9.13;;;1.40;99.90;;;;;;5033410;28;20041;-88
2022/01/08 08:32:50;;;;;;;18.15;8.27;;;1.60;99.90;;;;;;4976066;28;20128;-84
2022/01/08 08:35:17;;;;;;;20.58;8.40;;;1.60;99.90;;;;;;5003995;28;20130;-85
2022/01/08 08:37:43;;;;;;;17.17;8.85;;;1.60;99.90;;;;;;4984197;28;20420;-86
2022/01/08 08:40:12;;;;;;;19.52;9.13;;;1.70;99.90;;;;;;4988063;28;20094;-85
2022/01/08 08:42:40;;;;;;;12.13;7.30;;;1.80;99.90;;;;;;5010120;28;20083;-86
2022/01/08 08:45:07;;;;;;;11.90;7.65;;;1.80;99.90;;;;;;5020226;28;20048;-86
2022/01/08 08:47:33;;;;;;;15.68;7.68;;;1.90;99.90;;;;;;5043726;28;20060;-85
2022/01/08 08:50:00;;;;;;;14.48;7.75;;;2.10;99.90;;;;;;5002558;28;20477;-86
2022/01/08 08:52:27;;;;;;;14.05;7.80;;;2.30;99.90;;;;;;5046195;28;20045;-86
2022/01/08 08:54:53;;;;;;;16.42;6.82;;;2.40;99.90;;;;;;5020794;28;20056;-87
2022/01/08 08:57:19;;;;;;;16.02;6.93;;;2.40;99.90;;;;;;5007239;28;20091;-88
2022/01/08 08:59:46;;;;;;;13.32;6.50;;;2.40;99.90;;;;;;5056168;28;20048;-87
2022/01/08 09:02:12;;;;;;;14.68;6.75;;;2.50;99.90;;;;;;5009325;28;20100;-86
2022/01/08 09:04:40;;;;;;;9.45;6.68;;;2.70;99.90;;;;;;5022170;28;20045;-85
2022/01/08 09:07:06;;;;;;;9.98;6.47;;;2.70;99.90;;;;;;5030312;28;20029;-87
2022/01/08 09:09:33;;;;;;;13.73;6.93;;;3.00;99.90;;;;;;5032645;28;20032;-85
2022/01/08 09:11:59;;;;;;;15.05;6.97;;;2.90;99.90;;;;;;5027272;28;20056;-86
2022/01/08 09:14:26;;;;;;;10.30;6.60;;;2.90;99.90;;;;;;5015616;28;20060;-87
2022/01/08 09:16:57;;;;;;;12.90;6.47;;;3.00;99.90;;;;;;5007490;28;20049;-86
2022/01/08 09:19:24;;;;;;;13.07;6.60;;;3.20;99.90;;;;;;5060083;28;20041;-88
2022/01/08 09:21:51;;;;;;;16.58;6.68;;;3.20;99.90;;;;;;5025413;28;20052;-84
2022/01/08 09:24:18;;;;;;;16.50;7.05;;;3.10;99.90;;;;;;5007097;28;20059;-86
2022/01/08 09:26:45;;;;;;;11.27;7.03;;;3.10;99.90;;;;;;5012620;28;20049;-86
2022/01/08 09:29:11;;;;;;;14.95;6.32;;;3.00;99.90;;;;;;5032982;28;20040;-86
2022/01/08 09:31:39;;;;;;;14.02;7.25;;;2.90;99.90;;;;;;5024130;28;20037;-86
2022/01/08 09:34:06;;;;;;;12.15;7.28;;;2.80;99.90;;;;;;5029260;28;20045;-87
2022/01/08 09:36:32;;;;;;;14.68;7.50;;;2.70;99.90;;;;;;5014433;28;20400;-85
2022/01/08 09:38:59;;;;;;;13.13;7.93;;;2.60;99.90;;;;;;5020792;28;20041;-85
2022/01/08 09:41:25;;;;;;;19.17;8.73;;;2.50;99.90;;;;;;5048720;28;20120;-85
2022/01/08 09:43:51;;;;;;;11.25;8.48;;;2.60;99.90;;;;;;5026576;28;20152;-84
2022/01/08 09:46:21;;;;;;;20.13;9.50;;;2.60;99.90;;;;;;5030253;28;20056;-87
2022/01/08 09:48:48;;;;;;;16.00;9.27;;;2.60;99.90;;;;;;5007443;28;20045;-86
2022/01/08 09:51:16;;;;;;;21.05;9.25;;;2.70;99.90;;;;;;5011106;28;20048;-86
2022/01/08 09:53:43;;;;;;;19.17;9.60;;;2.90;99.90;;;;;;5029333;28;20079;-85
2022/01/08 09:56:10;;;;;;;15.88;9.35;;;3.00;99.90;;;;;;5011547;28;20473;-86
2022/01/08 09:58:36;;;;;;;19.63;9.60;;;3.10;99.90;;;;;;5024854;28;20040;-87
2022/01/08 10:01:20;;;;;;;14.95;9.60;;;3.20;99.90;;;;;;5008216;28;20045;-85
2022/01/08 10:03:46;;;;;;;14.43;9.25;;;3.20;99.90;;;;;;5024221;28;20064;-84
2022/01/08 10:06:20;;;;;;;20.60;10.00;;;3.20;99.90;;;;;;5020106;28;20041;-82
2022/01/08 10:08:46;;;;;;;16.67;10.02;;;3.20;99.90;;;;;;5009771;28;20048;-83
2022/01/08 10:11:12;;;;;;;19.60;10.80;;;3.20;99.90;;;;;;5056822;28;20458;-84
2022/01/08 10:13:42;;;;;;;17.63;10.82;;;3.30;99.90;;;;;;5018248;28;20117;-83
2022/01/08 10:19:01;;;;;;;16.13;12.07;;;3.40;99.90;;;;;;5019245;28;20524;-84
2022/01/08 10:21:30;;;;;;;16.83;11.35;;;3.50;99.90;;;;;;5024147;28;20120;-85
2022/01/08 10:24:04;;;;;;;17.75;10.90;;;3.60;99.90;;;;;;5044044;28;20057;-86
2022/01/08 10:26:36;;;;;;;16.08;10.15;;;3.80;99.90;;;;;;5028098;28;20048;-86
2022/01/08 10:29:07;;;;;;;;;;;3.90;99.90;;;;;;5040420;28;20145;-87
2022/01/08 10:31:39;;;;;;;13.80;9.68;;;4.00;99.90;;;;;;5025448;28;20423;-86
2022/01/08 10:34:18;;;;;;;15.50;11.23;;;4.00;99.90;;;;;;5046681;28;20516;-85
2022/01/08 10:36:48;;;;;;;15.60;10.90;;;3.90;99.90;;;;;;5001865;28;20523;-84
2022/01/08 10:39:18;;;;;;;15.38;10.57;;;3.80;99.90;;;;;;5005441;28;20141;-84
2022/01/08 10:41:46;;;;;;;14.52;9.98;;;3.70;99.90;;;;;;5020855;28;20041;-85
2022/01/08 10:44:14;;;;;;;19.67;11.20;;;3.60;99.90;;;;;;5025114;28;20132;-88
2022/01/08 10:47:05;;;;;;;16.23;10.65;;;3.60;99.90;;;;;;5025383;28;20194;-86
2022/01/08 10:49:35;;;;;;;21.45;11.98;;;3.60;99.90;;;;;;5027841;28;20127;-90
2022/01/08 10:52:14;;;;;;;20.15;10.98;;;3.50;99.90;;;;;;5006895;28;20475;-89
2022/01/08 10:54:42;;;;;;;14.60;10.68;;;3.50;99.90;;;;;;5055064;28;20043;-84
2022/01/08 10:57:11;;;;;;;14.90;10.82;;;3.60;99.90;;;;;;5038802;28;20163;-85
2022/01/08 10:59:38;;;;;;;13.82;10.30;;;3.60;99.90;;;;;;5021673;28;20508;-86
2022/01/08 11:02:06;;;;;;;21.42;11.82;;;3.60;99.90;;;;;;5018291;28;20068;-86
2022/01/08 11:04:34;;;;;;;12.98;9.88;;;3.70;99.90;;;;;;5021208;28;20132;-85
2022/01/08 11:07:11;;;;;;;15.57;10.07;;;3.70;99.90;;;;;;5003797;28;20053;-88
2022/01/08 11:09:41;;;;;;;18.38;10.38;;;3.80;99.90;;;;;;5010832;28;20132;-86
2022/01/08 11:12:17;;;;;;;17.42;9.95;;;3.90;99.90;;;;;;5036006;28;20049;-89
2022/01/08 11:17:24;;;;;;;16.90;11.80;;;4.00;99.90;;;;;;5018019;28;20143;-85
2022/01/08 11:19:53;;;;;;;20.45;10.68;;;3.90;99.90;;;;;;5040333;28;20451;-87
2022/01/08 11:22:22;;;;;;;17.42;9.55;;;3.90;99.90;;;;;;5062884;28;20435;-86
2022/01/08 11:25:07;;;;;;;18.38;10.20;;;3.90;99.90;;;;;;5033938;28;20488;-86
2022/01/08 11:27:41;;;;;;;12.95;9.90;;;3.90;99.90;;;;;;5014961;28;20071;-89
2022/01/08 11:30:12;;;;;;;20.20;10.90;;;3.80;99.90;;;;;;5030979;28;20132;-91
2022/01/08 11:32:40;;;;;;;15.88;11.38;;;3.80;99.90;;;;;;5021572;28;20044;-85
2022/01/08 11:35:10;;;;;;;17.50;11.32;;;3.80;99.90;;;;;;4992989;28;20037;-88
2022/01/08 11:37:38;;;;;;;17.00;11.73;;;3.80;99.90;;;;;;5016978;28;20132;-88
2022/01/08 11:40:08;;;;;;;15.88;11.70;;;3.80;99.90;;;;;;5023903;28;20041;-86
2022/01/08 11:42:39;;;;;;;19.02;12.73;;;3.90;99.90;;;;;;5012234;28;20045;-84
2022/01/08 11:45:09;;;;;;;22.10;13.10;;;4.00;99.90;;;;;;5012758;28;20119;-85
2022/01/08 11:47:35;;;;;;;15.40;11.40;;;4.10;99.90;;;;;;5020413;28;20045;-88
2022/01/08 11:50:04;;;;;;;21.33;11.90;;;4.20;99.90;;;;;;5012404;28;20054;-85
2022/01/08 11:52:31;;;;;;;16.38;12.57;;;4.20;99.90;;;;;;5046305;28;20060;-83
2022/01/08 11:54:57;;;;;;;19.48;13.77;;;4.40;99.90;;;;;;5018230;28;20045;-86
2022/01/08 11:57:26;;;;;;;20.55;13.82;;;4.50;99.90;;;;;;4995743;28;20761;-84
2022/01/08 11:59:57;;;;;;;16.98;12.10;;;4.50;99.90;;;;;;5018785;28;20401;-87
2022/01/08 12:02:41;;;;;;;22.45;13.68;;;4.50;99.90;;;;;;4979407;28;20036;-86
2022/01/08 12:05:11;;;;;;;23.67;15.25;;;4.60;99.90;;;;;;5026902;28;20045;-86
2022/01/08 12:07:47;;;;;;;18.65;14.88;;;4.60;99.90;;;;;;5051214;28;20049;-85
2022/01/08 12:10:20;;;;;;;18.55;15.80;;;4.50;99.90;;;;;;5029224;28;20049;-86
2022/01/08 12:13:02;;;;;;;21.38;15.23;;;4.40;99.90;;;;;;5009945;28;20460;-86
2022/01/08 12:15:40;;;;;;;24.38;15.82;;;4.30;99.90;;;;;;5008873;28;20445;-86
2022/01/08 12:18:10;;;;;;;20.83;18.63;;;4.20;99.90;;;;;;5017357;28;20172;-85
2022/01/08 12:20:45;;;;;;;25.35;20.27;;;4.10;99.90;;;;;;5007210;28;20060;-84
2022/01/08 12:23:31;;;;;;;23.65;19.33;;;4.10;99.90;;;;;;5007696;28;20093;-86
2022/01/08 12:26:20;;;;;;;26.00;22.63;;;4.10;99.90;;;;;;5038738;28;20434;-81
2022/01/08 12:28:59;;;;;;;39.05;27.75;;;4.10;99.90;;;;;;5045325;28;20554;-86
2022/01/08 12:31:25;;;;;;;26.63;20.10;;;4.10;99.90;;;;;;5035809;28;20098;-87
2022/01/08 12:34:30;;;;;;;27.05;22.45;;;4.10;99.90;;;;;;5016016;28;20082;-87
2022/01/08 12:37:06;;;;;;;25.92;20.10;;;4.00;99.90;;;;;;5017599;28;20045;-87
2022/01/08 12:39:44;;;;;;;34.38;28.65;;;4.00;99.90;;;;;;5034320;28;20083;-86
2022/01/08 12:42:19;;;;;;;60.03;53.65;;;4.00;99.90;;;;;;5017366;28;20056;-87
2022/01/08 12:45:06;;;;;;;72.07;64.43;;;4.00;99.90;;;;;;5034950;28;20049;-84
2022/01/08 12:47:44;;;;;;;48.10;36.80;;;3.90;99.90;;;;;;5012351;28;20041;-87
2022/01/08 12:50:25;;;;;;;38.78;33.83;;;4.00;99.90;;;;;;5002365;28;20084;-86
2022/01/08 12:53:03;;;;;;;94.03;68.45;;;4.00;99.90;;;;;;5001167;28;20451;-87
2022/01/08 12:55:31;;;;;;;85.55;60.50;;;4.10;99.90;;;;;;5034476;28;20056;-87
2022/01/08 12:57:58;;;;;;;76.85;56.75;;;4.00;99.90;;;;;;4985407;28;20037;-88
2022/01/08 13:00:25;;;;;;;110.18;83.80;;;4.10;99.90;;;;;;5001012;28;20521;-87
2022/01/08 13:02:51;;;;;;;40.85;33.72;;;4.10;99.90;;;;;;5017447;28;20153;-89
2022/01/08 13:05:19;;;;;;;56.25;43.67;;;4.10;99.90;;;;;;5017532;28;20283;-87
2022/01/08 13:07:50;;;;;;;133.00;76.22;;;4.00;99.90;;;;;;5002820;28;20095;-86
2022/01/08 13:10:17;;;;;;;31.77;23.73;;;4.10;99.90;;;;;;5016444;28;20147;-84
2022/01/08 13:13:03;;;;;;;83.82;53.58;;;4.20;99.90;;;;;;4989826;28;20413;-86
2022/01/08 13:15:33;;;;;;;81.55;60.47;;;4.10;99.90;;;;;;4995695;28;20855;-81
2022/01/08 13:18:19;;;;;;;33.75;28.33;;;4.20;99.90;;;;;;5023322;28;20078;-86